Time;durP1;ratioP1;P1;durP2;ratioP2;P2;SDS_P1;SDS_P2;PMS_P1;PMS_P2;Temp;Humidity;BMP_temperature;BMP_pressure;BME280_temperature;BME280_humidity;BME280_pressure;Samples;Min_cycle;Max_cycle;Signal;HPM_P1;HPM_P2
2021/07/04 00:02:03;;;;;;;5.93;4.37;;;;;;;21.61;62.51;100050.00;5029977;28;20413;-87
2021/07/04 00:04:28;;;;;;;4.80;4.30;;;;;;;21.59;62.26;100051.47;5032710;28;20483;-87
2021/07/04 00:06:53;;;;;;;12.37;4.83;;;;;;;21.60;62.12;100047.59;5032402;28;20478;-88
2021/07/04 00:09:19;;;;;;;4.83;4.13;;;;;;;21.55;62.61;100042.22;5032369;28;20399;-87
2021/07/04 00:11:44;;;;;;;4.97;4.47;;;;;;;21.49;62.72;100041.59;5031094;28;20893;-87
2021/07/04 00:14:09;;;;;;;5.57;4.67;;;;;;;21.40;62.91;100040.00;5032141;28;20399;-88
2021/07/04 00:16:35;;;;;;;5.27;4.50;;;;;;;21.35;62.87;100035.44;5032257;28;20467;-88
2021/07/04 00:19:00;;;;;;;5.70;5.20;;;;;;;21.32;63.12;100027.03;5027572;28;20419;-88
2021/07/04 00:21:26;;;;;;;4.73;4.33;;;;;;;21.27;62.96;100028.03;5028706;28;20403;-88
2021/07/04 00:23:52;;;;;;;5.03;4.55;;;;;;;21.29;63.01;100020.22;5030739;28;20411;-88
2021/07/04 00:26:18;;;;;;;5.20;4.80;;;;;;;21.29;63.06;100022.97;5032479;28;20833;-88
2021/07/04 00:28:44;;;;;;;5.18;4.80;;;;;;;21.29;63.00;100019.41;5032075;28;20559;-88
2021/07/04 00:31:09;;;;;;;5.20;4.80;;;;;;;21.27;63.19;100018.94;5032452;28;20403;-88
2021/07/04 00:33:34;;;;;;;5.40;4.90;;;;;;;21.26;63.41;100020.06;5031411;28;20426;-87
2021/07/04 00:36:00;;;;;;;5.27;4.90;;;;;;;21.19;63.55;100021.38;5030418;28;20892;-87
2021/07/04 00:38:26;;;;;;;5.60;5.10;;;;;;;21.22;63.49;100019.91;5033721;28;20480;-87
2021/07/04 00:40:51;;;;;;;5.47;5.05;;;;;;;21.16;63.91;100024.78;5027843;28;20412;-88
2021/07/04 00:43:17;;;;;;;5.50;5.10;;;;;;;21.14;63.71;100021.53;5026296;28;20407;-88
2021/07/04 00:45:42;;;;;;;5.47;4.97;;;;;;;21.15;63.70;100030.59;5030293;28;20469;-86
2021/07/04 00:48:08;;;;;;;4.33;4.13;;;;;;;21.08;64.18;100022.78;5030199;28;20439;-88
2021/07/04 00:50:35;;;;;;;5.22;4.82;;;;;;;21.08;64.26;100021.97;5031671;28;20403;-87
2021/07/04 00:53:01;;;;;;;5.32;4.93;;;;;;;21.08;64.08;100022.78;5031451;28;20669;-88
2021/07/04 00:55:27;;;;;;;5.88;5.22;;;;;;;21.09;64.19;100018.94;5031569;28;20418;-87
2021/07/04 00:57:53;;;;;;;5.30;4.65;;;;;;;21.10;64.21;100011.50;5030351;28;20961;-88
2021/07/04 01:00:22;;;;;;;5.40;5.00;;;;;;;21.12;64.28;100018.28;5030742;28;20406;-88
2021/07/04 01:02:48;;;;;;;6.15;5.43;;;;;;;21.13;64.22;100014.41;5029788;28;20405;-87
2021/07/04 01:05:16;;;;;;;5.50;5.07;;;;;;;21.15;64.19;100012.13;5031332;28;20486;-88
2021/07/04 01:07:43;;;;;;;6.22;5.65;;;;;;;21.17;64.24;100006.31;5035792;28;20395;-87
2021/07/04 01:10:10;;;;;;;6.13;5.63;;;;;;;21.21;63.73;100005.31;5031207;28;20395;-87
2021/07/04 01:12:37;;;;;;;5.90;5.40;;;;;;;21.24;64.03;100014.06;5024189;28;20837;-87
2021/07/04 01:15:07;;;;;;;6.13;4.97;;;;;;;21.24;64.02;100014.06;5030679;28;20867;-87
2021/07/04 01:17:34;;;;;;;5.25;4.80;;;;;;;21.17;64.44;100009.06;5037567;28;20417;-87
2021/07/04 01:19:59;;;;;;;5.63;4.53;;;;;;;21.11;64.36;100015.84;5031282;28;20403;-88
2021/07/04 01:22:27;;;;;;;5.17;4.63;;;;;;;21.10;64.63;100000.47;5031283;28;20766;-87
2021/07/04 01:24:53;;;;;;;8.88;4.90;;;;;;;21.07;64.82;100003.84;5031021;28;20422;-87
2021/07/04 01:27:19;;;;;;;4.93;4.65;;;;;;;20.99;64.82;100007.41;5036230;28;20402;-87
2021/07/04 01:29:44;;;;;;;5.38;5.07;;;;;;;21.00;65.00;100001.59;5033405;28;20402;-87
2021/07/04 01:32:10;;;;;;;5.40;4.90;;;;;;;21.01;64.90;100005.94;5030985;28;20575;-87
2021/07/04 01:34:35;;;;;;;4.87;4.57;;;;;;;21.03;65.05;99997.38;5030440;28;20496;-87
2021/07/04 01:37:01;;;;;;;4.93;4.63;;;;;;;21.00;65.09;100003.53;5032379;28;20444;-86
2021/07/04 01:39:28;;;;;;;5.67;5.13;;;;;;;20.97;65.27;100002.25;5029552;28;20406;-87
2021/07/04 01:41:54;;;;;;;5.10;4.70;;;;;;;20.98;65.34;100001.09;5033041;28;20770;-87
2021/07/04 01:44:19;;;;;;;5.45;4.72;;;;;;;20.93;65.23;100000.44;5025112;28;20436;-87
2021/07/04 01:46:44;;;;;;;5.40;4.90;;;;;;;20.93;65.31;100001.25;5026274;28;20446;-87
2021/07/04 01:49:10;;;;;;;5.80;5.35;;;;;;;21.01;65.35;99997.69;5031181;28;20415;-87
2021/07/04 01:51:35;;;;;;;5.17;4.87;;;;;;;21.04;65.12;100004.50;5024013;28;20406;-87
2021/07/04 01:54:01;;;;;;;5.82;5.22;;;;;;;21.00;65.44;100000.78;5030216;28;20883;-87
2021/07/04 01:56:26;;;;;;;5.90;5.30;;;;;;;20.99;65.43;99999.97;5031582;28;20444;-86
2021/07/04 01:58:51;;;;;;;5.77;5.33;;;;;;;20.98;65.57;100003.84;5027823;28;20760;-87
2021/07/04 02:01:17;;;;;;;5.70;5.30;;;;;;;20.95;65.74;100003.66;5030950;28;20770;-87
2021/07/04 02:03:42;;;;;;;6.57;5.63;;;;;;;20.90;65.90;100001.91;5026576;28;20401;-87
2021/07/04 02:06:07;;;;;;;5.87;5.50;;;;;;;20.89;65.92;100000.28;5034781;28;20397;-87
2021/07/04 02:08:33;;;;;;;5.63;5.13;;;;;;;20.91;65.81;99998.00;5037401;28;20401;-87
2021/07/04 02:10:58;;;;;;;6.00;5.60;;;;;;;20.91;66.06;99994.47;5029589;28;20399;-87
2021/07/04 02:13:23;;;;;;;5.22;4.93;;;;;;;20.81;66.36;99995.59;5035427;28;20488;-87
2021/07/04 02:15:49;;;;;;;6.33;5.33;;;;;;;20.82;66.45;99999.94;5032762;28;20494;-87
2021/07/04 02:18:16;;;;;;;5.45;5.05;;;;;;;20.82;66.46;99991.69;5030314;28;20436;-87
2021/07/04 02:20:52;;;;;;;5.45;5.15;;;;;;;20.83;66.40;99995.25;5029324;28;20395;-87
2021/07/04 02:23:31;;;;;;;5.50;4.93;;;;;;;20.86;66.46;99994.59;5029782;28;20761;-87
2021/07/04 02:25:58;;;;;;;6.13;5.53;;;;;;;20.88;66.27;99995.13;5030213;28;20399;-87
2021/07/04 02:28:26;;;;;;;6.13;5.63;;;;;;;20.91;66.28;99992.50;5027145;28;20403;-87
2021/07/04 02:30:54;;;;;;;8.77;5.77;;;;;;;20.99;66.14;99990.88;5034239;28;20403;-87
2021/07/04 02:33:21;;;;;;;5.80;5.27;;;;;;;21.02;65.88;99996.53;5033928;28;20516;-87
2021/07/04 02:35:49;;;;;;;6.57;5.97;;;;;;;21.08;66.12;99999.94;5036782;28;20417;-87
2021/07/04 02:38:15;;;;;;;5.75;5.25;;;;;;;21.06;65.85;99985.69;5033056;28;20422;-87
2021/07/04 02:40:42;;;;;;;6.10;5.50;;;;;;;21.04;66.33;99985.22;5033082;28;20391;-87
2021/07/04 02:43:09;;;;;;;5.80;5.40;;;;;;;21.06;65.89;99989.25;5033684;28;20395;-87
2021/07/04 02:45:35;;;;;;;6.00;5.47;;;;;;;21.02;66.28;99984.72;5034136;28;20486;-87
2021/07/04 02:48:01;;;;;;;5.78;5.32;;;;;;;21.01;66.44;99988.63;5025268;28;20399;-87
2021/07/04 02:50:27;;;;;;;5.50;5.10;;;;;;;20.97;66.61;99985.72;5033946;28;20972;-87
2021/07/04 02:52:54;;;;;;;5.72;5.22;;;;;;;20.96;66.67;99991.53;5032953;28;20435;-87
2021/07/04 02:55:21;;;;;;;5.68;5.30;;;;;;;20.92;66.73;99993.31;5032316;28;20497;-86
2021/07/04 02:57:46;;;;;;;6.43;5.85;;;;;;;20.95;66.87;99985.22;5040951;28;20454;-87
2021/07/04 03:00:15;;;;;;;5.93;5.53;;;;;;;20.99;66.67;99990.88;5036771;28;20980;-87
2021/07/04 03:02:40;;;;;;;6.25;5.85;;;;;;;20.98;66.67;99995.56;5035286;28;20420;-87
2021/07/04 03:05:08;;;;;;;6.50;6.00;;;;;;;20.99;66.87;99988.13;5042245;28;20498;-87
2021/07/04 03:07:34;;;;;;;6.13;5.70;;;;;;;20.99;66.94;99988.13;5035191;28;20399;-87
2021/07/04 03:09:59;;;;;;;6.25;5.75;;;;;;;20.98;67.10;99984.56;5035843;28;20411;-87
2021/07/04 03:12:26;;;;;;;6.75;6.13;;;;;;;21.00;66.91;99984.25;5033495;28;20403;-87
2021/07/04 03:14:51;;;;;;;6.25;5.68;;;;;;;21.03;66.89;99978.06;5033574;28;20407;-87
2021/07/04 03:17:17;;;;;;;6.03;5.63;;;;;;;21.03;66.93;99980.84;5032415;28;20411;-87
2021/07/04 03:19:42;;;;;;;5.90;5.32;;;;;;;21.06;66.84;99974.66;5033457;28;20395;-87
2021/07/04 03:22:07;;;;;;;6.20;5.60;;;;;;;21.11;66.92;99983.59;5033723;28;20434;-87
2021/07/04 03:24:33;;;;;;;5.50;5.10;;;;;;;21.15;66.92;99981.00;5034256;28;20912;-87
2021/07/04 03:26:58;;;;;;;6.00;5.60;;;;;;;21.14;66.66;99974.69;5033527;28;20473;-87
2021/07/04 03:29:23;;;;;;;6.18;5.57;;;;;;;21.13;66.90;99980.53;5031621;28;20409;-87
2021/07/04 03:31:49;;;;;;;6.37;5.83;;;;;;;21.14;67.09;99971.13;5034372;28;20403;-87
2021/07/04 03:34:15;;;;;;;5.93;5.33;;;;;;;21.12;66.80;99978.91;5032841;28;20939;-87
2021/07/04 03:36:40;;;;;;;6.18;5.38;;;;;;;21.06;66.76;99971.91;5031945;28;20496;-87
2021/07/04 03:39:06;;;;;;;5.75;5.45;;;;;;;21.07;66.96;99971.59;5030195;28;20552;-87
2021/07/04 03:41:31;;;;;;;5.40;5.00;;;;;;;21.11;66.80;99969.00;5030799;28;20459;-86
2021/07/04 03:43:59;;;;;;;5.85;5.43;;;;;;;21.10;66.79;99973.75;5032530;28;20411;-87
2021/07/04 03:46:25;;;;;;;7.70;6.22;;;;;;;21.08;67.12;99969.63;5043602;28;20393;-87
2021/07/04 03:48:50;;;;;;;8.75;7.28;;;;;;;21.08;66.90;99967.69;5034252;28;20413;-86
2021/07/04 03:51:15;;;;;;;7.30;6.70;;;;;;;21.12;66.90;99965.94;5035740;28;20490;-87
2021/07/04 03:53:41;;;;;;;7.50;6.90;;;;;;;21.14;66.92;99966.41;5031924;28;20936;-87
2021/07/04 03:56:06;;;;;;;6.83;6.23;;;;;;;21.16;66.78;99974.38;5033971;28;20417;-87
2021/07/04 03:58:31;;;;;;;7.17;6.40;;;;;;;21.16;66.88;99966.91;5036518;28;20415;-87
2021/07/04 04:00:57;;;;;;;6.80;6.23;;;;;;;21.09;67.61;99969.34;5031227;28;20406;-87
2021/07/04 04:03:22;;;;;;;6.10;5.60;;;;;;;21.09;67.68;99966.59;5031601;28;20478;-87
2021/07/04 04:05:47;;;;;;;6.22;5.70;;;;;;;21.09;67.72;99971.25;5031819;28;20498;-87
2021/07/04 04:08:12;;;;;;;7.03;6.10;;;;;;;21.14;67.62;99968.38;5029879;28;20407;-87
2021/07/04 04:10:38;;;;;;;6.90;5.83;;;;;;;21.16;67.81;99979.88;5032779;28;20410;-87
2021/07/04 04:13:03;;;;;;;7.13;6.00;;;;;;;21.11;67.87;99978.09;5035554;28;20401;-87
2021/07/04 04:15:29;;;;;;;6.77;5.93;;;;;;;21.09;68.04;99985.03;5033233;28;20425;-87
2021/07/04 04:17:58;;;;;;;6.80;5.83;;;;;;;21.10;68.22;99981.19;5036049;28;20418;-86
2021/07/04 04:20:24;;;;;;;6.72;6.03;;;;;;;21.09;68.19;99980.38;5040610;28;20461;-87
2021/07/04 04:22:55;;;;;;;6.63;6.03;;;;;;;21.06;68.71;99982.94;5031981;28;20874;-87
2021/07/04 04:25:21;;;;;;;7.28;6.18;;;;;;;21.08;68.43;99984.22;5031181;28;20477;-85
2021/07/04 04:27:47;;;;;;;5.95;5.35;;;;;;;21.11;68.50;99977.28;5035627;28;20758;-87
2021/07/04 04:30:13;;;;;;;6.00;5.60;;;;;;;21.12;68.47;99979.72;5038213;28;20398;-86
2021/07/04 04:32:39;;;;;;;6.80;5.90;;;;;;;21.15;68.42;99972.75;5030692;28;20677;-87
2021/07/04 04:35:05;;;;;;;6.00;5.60;;;;;;;21.21;68.32;99980.50;5038569;28;20468;-87
2021/07/04 04:37:30;;;;;;;6.05;5.68;;;;;;;21.23;68.40;99977.44;5039398;28;20422;-87
2021/07/04 04:39:56;;;;;;;7.83;6.37;;;;;;;21.29;68.18;99983.56;5040171;28;20490;-86
2021/07/04 04:42:21;;;;;;;6.10;5.70;;;;;;;21.33;68.14;99981.78;5031301;28;20414;-86
2021/07/04 04:44:46;;;;;;;6.45;6.05;;;;;;;21.33;68.16;99973.53;5031743;28;20495;-87
2021/07/04 04:47:11;;;;;;;6.00;5.60;;;;;;;21.38;67.90;99974.16;5042389;28;20952;-87
2021/07/04 04:49:37;;;;;;;7.07;6.00;;;;;;;21.42;67.84;99977.88;5030549;28;20418;-86
2021/07/04 04:52:04;;;;;;;5.97;5.47;;;;;;;21.50;67.65;99963.28;5031282;28;20497;-86
2021/07/04 04:54:30;;;;;;;5.82;5.40;;;;;;;21.59;67.27;99960.47;5029586;28;20480;-86
2021/07/04 04:56:55;;;;;;;6.30;5.77;;;;;;;21.66;67.04;99952.50;5031465;28;20395;-87
2021/07/04 04:59:21;;;;;;;6.35;5.95;;;;;;;21.69;67.22;99951.84;5034286;28;20403;-86
2021/07/04 05:01:46;;;;;;;11.57;5.93;;;;;;;21.68;67.10;99947.47;5029544;28;20391;-87
2021/07/04 05:04:11;;;;;;;5.73;5.33;;;;;;;21.65;67.68;99953.63;5037583;28;20404;-87
2021/07/04 05:06:37;;;;;;;5.83;5.43;;;;;;;21.57;67.65;99947.00;5031086;28;20855;-87
2021/07/04 05:09:03;;;;;;;6.10;5.63;;;;;;;21.53;67.49;99942.50;5032374;28;20422;-87
2021/07/04 05:11:28;;;;;;;6.65;5.97;;;;;;;21.46;68.26;99948.53;5029555;28;20750;-86
2021/07/04 05:13:54;;;;;;;6.40;6.00;;;;;;;21.49;68.06;99944.28;5026114;28;20433;-87
2021/07/04 05:16:19;;;;;;;6.07;5.55;;;;;;;21.52;68.14;99947.19;5045659;28;20402;-87
2021/07/04 05:18:45;;;;;;;6.80;6.20;;;;;;;21.50;68.48;99943.97;5033876;28;20488;-86
2021/07/04 05:21:12;;;;;;;6.32;5.90;;;;;;;21.51;68.26;99936.50;5028476;28;21353;-87
2021/07/04 05:23:37;;;;;;;6.23;5.80;;;;;;;21.57;68.14;99935.97;5029145;28;20497;-87
2021/07/04 05:26:02;;;;;;;6.22;5.72;;;;;;;21.63;68.28;99934.69;5030093;28;20411;-86
2021/07/04 05:28:28;;;;;;;5.80;5.50;;;;;;;21.63;67.86;99929.16;5029421;28;20407;-86
2021/07/04 05:30:54;;;;;;;6.37;5.87;;;;;;;21.67;68.01;99937.56;5031015;28;20402;-87
2021/07/04 05:33:20;;;;;;;5.85;5.45;;;;;;;21.73;67.77;99931.53;5030764;28;20465;-86
2021/07/04 05:35:45;;;;;;;6.23;5.77;;;;;;;21.72;67.73;99929.94;5030439;28;20403;-86
2021/07/04 05:38:21;;;;;;;6.13;5.63;;;;;;;21.75;67.49;99922.94;5026424;28;23272;-86
2021/07/04 05:40:48;;;;;;;5.80;5.50;;;;;;;21.79;67.58;99925.84;5028289;28;20413;-87
2021/07/04 05:43:14;;;;;;;6.80;6.30;;;;;;;21.85;67.27;99922.56;5028324;28;20913;-87
2021/07/04 05:45:40;;;;;;;6.43;5.72;;;;;;;21.88;67.41;99924.66;5030513;28;20925;-86
2021/07/04 05:48:05;;;;;;;6.83;6.20;;;;;;;21.99;67.27;99925.13;5028682;28;20391;-87
2021/07/04 05:50:31;;;;;;;6.97;6.35;;;;;;;22.08;67.12;99923.91;5027737;28;20850;-88
2021/07/04 05:52:56;;;;;;;6.53;6.03;;;;;;;22.09;66.94;99933.81;5030710;28;20391;-86
2021/07/04 05:55:22;;;;;;;7.15;6.45;;;;;;;22.14;66.52;99927.28;5031177;28;20430;-86
2021/07/04 05:57:48;;;;;;;7.10;6.40;;;;;;;22.11;66.77;99926.00;5029116;28;20463;-86
2021/07/04 06:00:14;;;;;;;7.23;6.57;;;;;;;22.13;67.01;99934.75;5031571;28;20881;-86
2021/07/04 06:02:39;;;;;;;7.07;6.50;;;;;;;22.16;67.00;99931.31;5036411;28;20862;-89
2021/07/04 06:05:05;;;;;;;7.03;6.43;;;;;;;22.13;67.02;99931.19;5034880;28;20464;-87
2021/07/04 06:07:30;;;;;;;6.80;6.30;;;;;;;22.15;67.19;99917.88;5034784;28;20480;-87
2021/07/04 06:09:55;;;;;;;6.43;6.03;;;;;;;22.15;67.14;99917.88;5034817;28;20451;-87
2021/07/04 06:12:21;;;;;;;6.53;5.93;;;;;;;22.18;66.70;99917.19;5017719;28;20396;-86
2021/07/04 06:14:46;;;;;;;7.20;6.50;;;;;;;22.19;66.60;99925.16;5035625;28;20399;-86
2021/07/04 06:17:11;;;;;;;6.20;5.70;;;;;;;22.16;66.79;99923.03;5035213;28;20446;-88
2021/07/04 06:19:36;;;;;;;6.93;5.90;;;;;;;22.21;66.32;99933.91;5045757;28;20419;-87
2021/07/04 06:22:03;;;;;;;5.57;5.10;;;;;;;22.24;66.59;99943.47;5033970;28;20564;-87
2021/07/04 06:24:28;;;;;;;6.03;5.53;;;;;;;22.28;66.55;99918.75;5034650;28;20481;-87
2021/07/04 06:26:53;;;;;;;5.20;4.90;;;;;;;22.40;66.38;99929.88;5033518;28;20423;-90
2021/07/04 06:29:19;;;;;;;6.15;5.55;;;;;;;22.51;66.34;99922.81;5028004;28;20500;-87
2021/07/04 06:31:44;;;;;;;6.50;5.63;;;;;;;22.70;66.07;99923.97;5034320;28;20399;-87
2021/07/04 06:34:09;;;;;;;5.67;5.17;;;;;;;22.76;65.31;99919.03;5025551;28;20416;-88
2021/07/04 06:36:35;;;;;;;7.67;5.47;;;;;;;22.86;64.88;99918.63;5014927;28;20802;-86
2021/07/04 06:39:00;;;;;;;5.68;5.28;;;;;;;23.03;64.73;99917.66;5028244;28;20463;-86
2021/07/04 06:41:26;;;;;;;5.80;5.30;;;;;;;23.10;64.25;99923.44;5046223;28;20421;-86
2021/07/04 06:44:00;;;;;;;5.80;5.20;;;;;;;23.15;64.19;99921.25;5034620;28;20395;-86
2021/07/04 06:46:26;;;;;;;5.55;5.15;;;;;;;23.19;64.01;99915.84;5033929;28;20411;-87
2021/07/04 06:48:51;;;;;;;6.00;5.50;;;;;;;23.25;63.60;99925.53;5029965;28;20399;-86
2021/07/04 06:51:16;;;;;;;5.90;4.97;;;;;;;23.26;63.33;99925.22;5026736;28;20415;-87
2021/07/04 06:53:42;;;;;;;5.45;4.97;;;;;;;23.27;63.03;99923.25;5035668;28;20456;-86
2021/07/04 06:56:07;;;;;;;5.17;4.70;;;;;;;23.14;63.30;99916.91;5021020;28;20567;-86
2021/07/04 06:58:33;;;;;;;5.83;5.43;;;;;;;23.10;63.44;99918.72;5035258;28;20423;-86
2021/07/04 07:00:58;;;;;;;5.82;5.38;;;;;;;23.14;63.23;99916.09;5033428;28;20403;-87
2021/07/04 07:03:23;;;;;;;5.27;4.87;;;;;;;23.24;63.05;99915.66;5035300;28;20735;-87
2021/07/04 07:05:49;;;;;;;5.90;5.50;;;;;;;23.36;62.88;99912.09;5042338;28;20500;-87
2021/07/04 07:08:14;;;;;;;5.90;5.40;;;;;;;23.42;62.65;99908.78;5033259;28;20897;-87
2021/07/04 07:10:39;;;;;;;5.43;4.93;;;;;;;23.48;61.97;99910.19;5050270;28;20495;-87
2021/07/04 07:13:05;;;;;;;5.50;5.07;;;;;;;23.52;61.99;99904.75;5020179;28;20917;-86
2021/07/04 07:15:31;;;;;;;7.37;5.30;;;;;;;23.60;61.68;99912.16;5024918;28;20826;-87
2021/07/04 07:17:56;;;;;;;5.88;5.00;;;;;;;23.65;61.27;99914.69;5034307;28;20825;-87
2021/07/04 07:20:24;;;;;;;5.40;5.00;;;;;;;23.65;61.81;99898.91;5033741;28;20391;-87
2021/07/04 07:22:49;;;;;;;5.90;5.13;;;;;;;23.81;60.90;99899.00;5033396;28;20592;-87
2021/07/04 07:25:14;;;;;;;5.47;4.97;;;;;;;23.96;60.38;99898.31;5031066;28;20452;-87
2021/07/04 07:27:40;;;;;;;5.10;4.80;;;;;;;24.12;59.52;99899.25;5031632;28;20414;-86
2021/07/04 07:30:08;;;;;;;5.10;4.60;;;;;;;24.22;59.50;99896.00;5033259;28;20785;-86
2021/07/04 07:32:35;;;;;;;5.28;4.93;;;;;;;24.30;59.39;99891.50;5039471;28;20899;-86
2021/07/04 07:35:01;;;;;;;4.95;4.55;;;;;;;24.35;59.59;99890.44;5032637;28;20895;-87
2021/07/04 07:37:27;;;;;;;4.63;4.23;;;;;;;24.41;58.88;99891.81;5033830;28;20417;-87
2021/07/04 07:39:52;;;;;;;7.07;4.78;;;;;;;24.43;58.84;99889.50;5035168;28;20410;-87
2021/07/04 07:42:18;;;;;;;5.10;4.60;;;;;;;24.53;58.23;99884.28;5032487;28;20411;-87
2021/07/04 07:44:44;;;;;;;5.00;4.70;;;;;;;24.68;57.75;99875.22;5041707;28;20433;-86
2021/07/04 07:47:09;;;;;;;4.97;4.57;;;;;;;24.74;57.49;99873.78;5051832;28;20894;-86
2021/07/04 07:49:35;;;;;;;5.17;4.83;;;;;;;24.80;57.60;99877.09;5032704;28;20478;-88
2021/07/04 07:52:00;;;;;;;5.60;4.20;;;;;;;24.83;57.59;99881.97;5031267;28;20411;-87
2021/07/04 07:54:26;;;;;;;4.73;4.43;;;;;;;24.87;57.94;99882.06;5026498;28;20469;-88
2021/07/04 07:56:52;;;;;;;5.75;4.80;;;;;;;24.81;57.53;99878.72;5046856;28;20389;-88
2021/07/04 07:59:19;;;;;;;6.63;5.13;;;;;;;24.77;57.40;99866.72;5053376;28;20413;-88
2021/07/04 08:01:45;;;;;;;5.53;4.50;;;;;;;24.90;57.37;99870.28;5034730;28;20490;-87
2021/07/04 08:04:10;;;;;;;4.70;4.23;;;;;;;25.04;57.23;99870.66;5032916;28;20478;-88
2021/07/04 08:06:35;;;;;;;4.67;4.37;;;;;;;25.23;56.86;99865.22;5031411;28;20482;-86
2021/07/04 08:09:01;;;;;;;4.83;4.43;;;;;;;25.29;56.37;99863.81;5032105;28;20435;-87
2021/07/04 08:11:26;;;;;;;4.28;3.97;;;;;;;25.39;55.93;99857.72;5028601;28;20392;-87
2021/07/04 08:13:52;;;;;;;5.00;4.50;;;;;;;25.62;55.29;99869.81;5024715;28;20405;-85
2021/07/04 08:16:17;;;;;;;4.60;4.30;;;;;;;25.72;54.89;99866.50;5052195;28;20425;-86
2021/07/04 08:18:43;;;;;;;4.18;3.88;;;;;;;25.65;55.48;99863.56;5032912;28;20948;-86
2021/07/04 08:21:08;;;;;;;4.47;4.17;;;;;;;25.58;55.44;99859.81;5033060;28;20388;-86
2021/07/04 08:23:34;;;;;;;5.03;4.73;;;;;;;25.56;55.62;99862.13;5050397;28;20454;-86
2021/07/04 08:25:59;;;;;;;4.97;4.47;;;;;;;25.51;55.75;99852.13;5031711;28;20403;-86
2021/07/04 08:28:24;;;;;;;4.67;4.37;;;;;;;25.70;55.43;99846.66;5032162;28;20442;-86
2021/07/04 08:30:50;;;;;;;4.67;4.37;;;;;;;25.82;55.25;99851.25;5049848;28;20887;-85
2021/07/04 08:33:15;;;;;;;5.10;4.70;;;;;;;26.10;55.50;99837.22;5048446;28;20424;-88
2021/07/04 08:35:41;;;;;;;5.07;4.68;;;;;;;26.47;54.44;99840.44;5042291;28;20411;-87
2021/07/04 08:38:09;;;;;;;4.60;4.30;;;;;;;26.75;54.07;99839.03;5033061;28;20510;-87
2021/07/04 08:40:38;;;;;;;4.63;4.25;;;;;;;26.59;53.75;99848.63;5044371;28;20386;-86
2021/07/04 08:43:05;;;;;;;5.05;4.75;;;;;;;26.30;53.27;99844.44;5032928;28;20395;-86
2021/07/04 08:45:37;;;;;;;4.68;4.38;;;;;;;25.88;54.92;99846.25;5032446;28;20913;-87
2021/07/04 08:48:04;;;;;;;5.30;4.80;;;;;;;25.68;55.91;99854.53;5032876;28;20838;-87
2021/07/04 08:50:33;;;;;;;5.05;4.65;;;;;;;25.53;56.16;99849.78;5031193;28;20402;-86
2021/07/04 08:53:00;;;;;;;5.22;4.93;;;;;;;25.49;56.22;99854.41;5027732;28;20407;-87
2021/07/04 08:55:27;;;;;;;4.53;4.22;;;;;;;25.33;56.20;99850.03;5032329;28;20383;-86
2021/07/04 08:57:56;;;;;;;4.80;4.50;;;;;;;25.25;55.99;99851.84;5030682;28;20406;-86
2021/07/04 09:00:22;;;;;;;4.65;4.25;;;;;;;25.15;56.77;99850.41;5030958;28;20427;-87
2021/07/04 09:02:48;;;;;;;4.90;4.60;;;;;;;25.09;56.74;99846.25;5032107;28;20754;-86
2021/07/04 09:05:13;;;;;;;4.67;4.27;;;;;;;24.99;56.24;99848.78;5032913;28;20490;-87
2021/07/04 09:07:40;;;;;;;4.40;4.20;;;;;;;24.77;57.14;99845.38;5051898;28;20389;-86
2021/07/04 09:10:09;;;;;;;5.10;4.70;;;;;;;24.68;57.78;99838.38;5034846;28;20411;-85
2021/07/04 09:12:40;;;;;;;4.28;4.03;;;;;;;24.76;57.74;99834.66;5018321;28;20416;-86
2021/07/04 09:15:11;;;;;;;6.30;4.57;;;;;;;24.85;57.77;99835.31;5017791;28;20423;-86
2021/07/04 09:17:38;;;;;;;4.83;4.43;;;;;;;24.86;57.76;99836.13;5017975;28;20425;-86
2021/07/04 09:20:07;;;;;;;7.22;4.70;;;;;;;24.92;57.94;99835.53;5029004;28;20440;-85
2021/07/04 09:22:36;;;;;;;5.17;4.67;;;;;;;24.92;57.91;99831.94;5026129;28;20510;-85
2021/07/04 09:25:19;;;;;;;5.28;4.97;;;;;;;25.04;57.89;99826.31;5031437;28;20440;-87
2021/07/04 09:28:07;;;;;;;4.90;4.50;;;;;;;25.17;59.20;99823.09;5026495;28;20482;-90
2021/07/04 09:30:35;;;;;;;4.90;4.60;;;;;;;25.30;60.02;99827.41;5028072;28;20496;-87
2021/07/04 09:33:19;;;;;;;5.68;5.10;;;;;;;25.24;60.70;99828.84;5025506;28;20448;-87
2021/07/04 09:35:59;;;;;;;5.87;5.23;;;;;;;25.27;61.82;99828.13;5023839;28;20443;-88
2021/07/04 09:38:30;;;;;;;5.40;5.05;;;;;;;25.23;61.97;99829.19;5027785;28;20449;-87
2021/07/04 09:40:56;;;;;;;6.13;5.70;;;;;;;25.21;62.90;99826.78;5010177;28;20441;-87
2021/07/04 09:43:22;;;;;;;8.97;5.87;;;;;;;25.17;62.94;99827.84;5009714;28;20415;-87
2021/07/04 09:45:51;;;;;;;5.43;4.93;;;;;;;25.12;62.62;99830.91;5009917;28;20501;-87
2021/07/04 09:48:32;;;;;;;4.47;4.28;;;;;;;25.04;61.92;99818.81;5005199;28;20411;-87
2021/07/04 09:51:11;;;;;;;5.40;5.10;;;;;;;24.90;61.31;99818.41;5007810;28;20418;-86
2021/07/04 09:53:58;;;;;;;4.90;4.45;;;;;;;25.05;61.00;99809.34;5003038;28;20430;-86
2021/07/04 09:56:31;;;;;;;5.28;4.97;;;;;;;25.02;60.21;99804.50;5001893;28;20418;-87
2021/07/04 09:59:02;;;;;;;5.00;4.55;;;;;;;25.01;60.29;99794.56;5009029;28;20433;-88
2021/07/04 10:01:40;;;;;;;5.70;4.75;;;;;;;24.85;60.60;99801.25;5010855;28;20442;-89
2021/07/04 10:04:08;;;;;;;5.13;4.75;;;;;;;24.70;60.75;99806.38;5024953;28;20400;-87
2021/07/04 10:06:50;;;;;;;5.30;4.90;;;;;;;24.57;60.94;99804.84;5025619;28;20415;-87
2021/07/04 10:09:17;;;;;;;5.00;4.70;;;;;;;24.66;61.33;99804.69;5029287;28;20434;-84
2021/07/04 10:11:43;;;;;;;4.65;4.35;;;;;;;24.76;61.16;99801.41;5025143;28;20897;-87
2021/07/04 10:14:08;;;;;;;5.20;4.85;;;;;;;24.75;61.26;99805.31;5031253;28;20459;-88
2021/07/04 10:16:33;;;;;;;4.90;4.60;;;;;;;24.73;61.37;99805.66;5029393;28;20789;-88
2021/07/04 10:19:04;;;;;;;4.50;4.30;;;;;;;24.73;61.08;99811.22;5029005;28;20425;-89
2021/07/04 10:21:32;;;;;;;4.97;4.57;;;;;;;24.85;62.08;99804.84;5028015;28;20475;-88
2021/07/04 10:23:58;;;;;;;4.90;4.60;;;;;;;24.93;61.48;99806.63;5031507;28;20403;-89
2021/07/04 10:26:25;;;;;;;4.43;4.13;;;;;;;24.98;61.91;99817.47;5037056;28;20466;-89
2021/07/04 10:28:55;;;;;;;6.20;4.13;;;;;;;24.80;61.76;99819.72;5028426;28;20854;-88
2021/07/04 10:31:21;;;;;;;4.55;4.35;;;;;;;24.56;62.77;99819.06;5028889;28;20422;-89
2021/07/04 10:34:02;;;;;;;5.00;4.68;;;;;;;24.39;62.85;99803.53;5030254;28;20399;-88
2021/07/04 10:36:27;;;;;;;5.25;4.95;;;;;;;24.27;62.64;99798.03;5032576;28;20414;-89
2021/07/04 10:38:58;;;;;;;5.50;5.10;;;;;;;24.15;63.27;99796.13;5026997;28;20415;-89
2021/07/04 10:41:36;;;;;;;4.80;4.50;;;;;;;24.23;63.15;99788.84;5032178;28;20825;-89
2021/07/04 10:44:11;;;;;;;6.35;5.40;;;;;;;24.34;62.85;99780.81;5030883;28;20894;-89
2021/07/04 10:46:51;;;;;;;5.13;4.70;;;;;;;24.32;63.28;99780.38;5029221;28;20410;-89
2021/07/04 10:49:21;;;;;;;4.95;4.55;;;;;;;24.22;63.17;99784.44;5039443;28;20766;-89
2021/07/04 10:51:57;;;;;;;4.60;4.30;;;;;;;24.01;62.42;99784.59;5025925;28;20478;-89
2021/07/04 10:54:47;;;;;;;4.90;4.63;;;;;;;23.83;62.82;99783.28;5032813;28;20414;-90
2021/07/04 10:57:14;;;;;;;5.30;4.80;;;;;;;23.72;63.62;99782.13;5041123;28;20396;-89
2021/07/04 11:00:11;;;;;;;4.90;4.43;;;;;;;23.60;63.99;99785.72;5039389;28;20423;-89
2021/07/04 11:02:42;;;;;;;21.73;8.70;;;;;;;23.41;67.86;99782.75;5033896;28;20430;-92
2021/07/04 11:05:30;;;;;;;23.75;9.38;;;;;;;23.30;71.07;99772.47;5028735;28;20783;-89
2021/07/04 11:07:56;;;;;;;11.93;6.57;;;;;;;23.13;71.90;99779.84;5019805;28;20422;-89
2021/07/04 11:10:35;;;;;;;7.50;6.23;;;;;;;23.15;71.36;99779.50;5039168;28;20574;-89
2021/07/04 11:13:06;;;;;;;14.60;7.53;;;;;;;23.09;71.85;99781.66;5029582;28;20407;-90
2021/07/04 11:15:32;;;;;;;7.57;6.00;;;;;;;23.06;72.36;99778.78;5032454;28;20430;-91
2021/07/04 11:20:23;;;;;;;7.70;6.07;;;;;;;23.27;71.44;99765.66;5030757;28;20408;-90
2021/07/04 11:23:25;;;;;;;6.50;6.00;;;;;;;23.27;71.60;99771.19;5033915;28;20407;-92
2021/07/04 11:25:59;;;;;;;5.77;5.33;;;;;;;23.23;70.64;99764.75;5031945;28;20407;-90
2021/07/04 11:28:26;;;;;;;4.90;4.50;;;;;;;23.23;70.83;99762.78;5031659;28;20497;-90
2021/07/04 11:31:01;;;;;;;5.27;4.87;;;;;;;23.17;70.98;99768.91;5031381;28;20434;-90
2021/07/04 11:33:34;;;;;;;6.30;4.53;;;;;;;23.13;70.60;99768.78;5033284;28;20403;-90
2021/07/04 11:36:05;;;;;;;4.60;4.28;;;;;;;23.10;70.63;99763.94;5032340;28;20422;-91